Time;durP1;ratioP1;P1;durP2;ratioP2;P2;SDS_P1;SDS_P2;PMS_P1;PMS_P2;Temp;Humidity;BMP_temperature;BMP_pressure;BME280_temperature;BME280_humidity;BME280_pressure;Samples;Min_cycle;Max_cycle;Signal;HPM_P1;HPM_P2
2021/10/11 00:00:56;;;;;;;22.25;12.38;;;5.90;99.90;;;;;;5103997;28;20077;-59
2021/10/11 00:03:21;;;;;;;19.67;11.75;;;5.90;99.90;;;;;;5096372;28;20039;-59
2021/10/11 00:05:47;;;;;;;22.50;13.38;;;5.90;99.90;;;;;;5097847;28;20551;-59
2021/10/11 00:08:12;;;;;;;22.67;13.07;;;5.80;99.90;;;;;;5096712;28;20131;-59
2021/10/11 00:10:38;;;;;;;20.13;12.23;;;5.80;99.90;;;;;;5098531;28;20153;-60
2021/10/11 00:13:04;;;;;;;23.85;12.90;;;5.80;99.90;;;;;;5101130;28;20452;-56
2021/10/11 00:15:29;;;;;;;19.92;12.90;;;5.80;99.90;;;;;;5102994;28;20058;-60
2021/10/11 00:17:56;;;;;;;23.65;12.82;;;5.80;99.90;;;;;;5100451;28;20027;-59
2021/10/11 00:20:22;;;;;;;20.65;12.90;;;5.80;99.90;;;;;;5097621;28;20020;-60
2021/10/11 00:22:47;;;;;;;25.25;13.68;;;5.70;99.90;;;;;;5101719;28;20030;-59
2021/10/11 00:25:13;;;;;;;22.08;13.35;;;5.70;99.90;;;;;;5104441;28;20059;-59
2021/10/11 00:27:39;;;;;;;23.80;12.93;;;5.70;99.90;;;;;;5103971;28;20092;-58
2021/10/11 00:30:11;;;;;;;22.13;13.05;;;5.70;99.90;;;;;;5104730;28;20036;-59
2021/10/11 00:32:36;;;;;;;25.13;13.30;;;5.70;99.90;;;;;;5107457;28;20511;-58
2021/10/11 00:35:03;;;;;;;21.90;12.30;;;5.70;99.90;;;;;;5107963;28;20024;-60
2021/10/11 00:37:29;;;;;;;22.40;13.70;;;5.70;99.90;;;;;;5101442;28;20035;-60
2021/10/11 00:39:54;;;;;;;30.13;15.20;;;5.70;99.90;;;;;;5097542;28;20038;-60
2021/10/11 00:42:20;;;;;;;23.85;13.80;;;5.70;99.90;;;;;;5108416;28;20059;-59
2021/10/11 00:44:46;;;;;;;20.48;14.05;;;5.80;99.90;;;;;;5104700;28;20027;-60
2021/10/11 00:47:11;;;;;;;26.20;14.02;;;5.90;99.90;;;;;;5102047;28;20046;-56
2021/10/11 00:49:37;;;;;;;26.67;14.13;;;6.00;99.90;;;;;;5100513;28;20126;-59
2021/10/11 00:52:03;;;;;;;26.95;14.15;;;6.10;99.90;;;;;;5100329;28;20028;-58
2021/10/11 00:54:30;;;;;;;24.50;14.52;;;6.10;99.90;;;;;;5096148;28;20035;-59
2021/10/11 00:56:56;;;;;;;21.05;13.02;;;6.20;99.90;;;;;;5106067;28;20038;-59
2021/10/11 00:59:21;;;;;;;22.55;13.38;;;6.30;99.90;;;;;;5107572;28;20025;-60
2021/10/11 01:01:47;;;;;;;22.60;13.55;;;6.30;99.90;;;;;;5106175;28;20039;-60
2021/10/11 01:04:13;;;;;;;22.08;13.23;;;6.40;99.90;;;;;;5105610;28;20065;-58
2021/10/11 01:06:41;;;;;;;22.42;13.88;;;6.40;99.90;;;;;;5107382;28;20039;-59
2021/10/11 01:09:08;;;;;;;22.35;14.23;;;6.40;99.90;;;;;;5107273;28;20111;-60
2021/10/11 01:11:34;;;;;;;23.75;13.35;;;6.30;99.90;;;;;;5107830;28;20066;-59
2021/10/11 01:13:59;;;;;;;21.13;12.65;;;6.30;99.90;;;;;;5099687;28;20477;-59
2021/10/11 01:16:25;;;;;;;20.88;12.65;;;6.30;99.90;;;;;;5108241;28;20441;-60
2021/10/11 01:18:51;;;;;;;20.85;13.70;;;6.20;99.90;;;;;;5106640;28;20035;-58
2021/10/11 01:21:17;;;;;;;21.27;13.93;;;6.10;99.90;;;;;;5102045;28;20047;-59
2021/10/11 01:23:43;;;;;;;26.48;15.48;;;6.10;99.90;;;;;;5107270;28;20065;-60
2021/10/11 01:26:08;;;;;;;25.48;14.40;;;6.00;99.90;;;;;;5101333;28;20115;-60
2021/10/11 01:28:34;;;;;;;24.15;14.90;;;5.90;99.90;;;;;;5106350;28;20554;-59
2021/10/11 01:30:59;;;;;;;26.50;15.68;;;5.90;99.90;;;;;;5101118;28;20035;-60
2021/10/11 01:33:25;;;;;;;33.15;19.02;;;5.80;99.90;;;;;;5109450;28;20172;-59
2021/10/11 01:35:50;;;;;;;25.40;15.50;;;5.80;99.90;;;;;;5108855;28;20164;-59
2021/10/11 01:38:16;;;;;;;30.48;15.05;;;5.80;99.90;;;;;;5109218;28;20028;-60
2021/10/11 01:40:42;;;;;;;31.42;18.35;;;5.80;99.90;;;;;;5109224;28;20049;-59
2021/10/11 01:43:08;;;;;;;29.73;17.08;;;5.80;99.90;;;;;;5105453;28;20096;-59
2021/10/11 01:45:35;;;;;;;26.42;16.33;;;5.80;99.90;;;;;;5106627;28;20551;-59
2021/10/11 01:48:03;;;;;;;27.15;15.43;;;5.90;99.90;;;;;;5106092;28;20028;-57
2021/10/11 01:50:29;;;;;;;23.58;14.27;;;6.00;99.90;;;;;;5108096;28;20032;-59
2021/10/11 01:52:55;;;;;;;23.05;14.40;;;6.10;99.90;;;;;;5108652;28;20043;-59
2021/10/11 01:55:20;;;;;;;23.38;14.18;;;6.20;99.90;;;;;;5109999;28;20031;-60
2021/10/11 01:57:46;;;;;;;23.83;13.80;;;6.30;99.90;;;;;;5107739;28;20036;-57
2021/10/11 02:00:12;;;;;;;30.60;15.00;;;6.30;99.90;;;;;;5109800;28;20032;-59
2021/10/11 02:02:37;;;;;;;21.33;13.63;;;6.30;99.90;;;;;;5109634;28;20086;-60
2021/10/11 02:05:04;;;;;;;23.65;14.82;;;6.40;99.90;;;;;;5103733;28;20036;-59
2021/10/11 02:07:30;;;;;;;23.58;14.18;;;6.40;99.90;;;;;;5102922;28;20027;-58
2021/10/11 02:09:56;;;;;;;24.00;14.02;;;6.50;99.90;;;;;;5103180;28;20035;-60
2021/10/11 02:12:22;;;;;;;23.30;13.80;;;6.50;99.90;;;;;;5105614;28;20059;-60
2021/10/11 02:14:48;;;;;;;25.98;13.75;;;6.60;99.90;;;;;;5109230;28;20026;-59
2021/10/11 02:17:15;;;;;;;23.38;14.60;;;6.60;99.90;;;;;;5107035;28;20031;-55
2021/10/11 02:19:40;;;;;;;19.42;12.43;;;6.70;99.90;;;;;;5101973;28;20085;-60
2021/10/11 02:22:06;;;;;;;18.08;11.40;;;6.70;99.90;;;;;;5111656;28;20016;-59
2021/10/11 02:24:32;;;;;;;21.45;11.00;;;6.70;99.90;;;;;;5110522;28;20542;-60
2021/10/11 02:26:57;;;;;;;18.63;11.95;;;6.80;99.90;;;;;;5100946;28;20712;-60
2021/10/11 02:29:24;;;;;;;20.77;12.27;;;6.80;99.90;;;;;;5109624;28;20588;-59
2021/10/11 02:31:51;;;;;;;22.40;11.90;;;6.80;99.90;;;;;;5109556;28;20062;-60
2021/10/11 02:34:17;;;;;;;20.92;11.90;;;6.80;99.90;;;;;;5102860;28;20016;-57
2021/10/11 02:36:42;;;;;;;23.05;13.90;;;6.70;99.90;;;;;;5112325;28;20526;-60
2021/10/11 02:39:08;;;;;;;23.90;13.15;;;6.80;99.90;;;;;;5112241;28;20020;-59
2021/10/11 02:41:34;;;;;;;28.75;14.07;;;6.80;99.90;;;;;;5110802;28;20107;-60
2021/10/11 02:43:59;;;;;;;25.65;13.75;;;6.90;99.90;;;;;;5106001;28;20077;-59
2021/10/11 02:46:25;;;;;;;28.50;14.00;;;6.90;99.90;;;;;;5106412;28;20024;-58
2021/10/11 02:48:50;;;;;;;27.08;16.38;;;6.90;99.90;;;;;;5102445;28;20031;-59
2021/10/11 02:51:16;;;;;;;29.30;17.80;;;6.90;99.90;;;;;;5105571;28;20024;-56
2021/10/11 02:53:42;;;;;;;34.17;19.65;;;7.00;99.90;;;;;;5097563;28;20617;-60
2021/10/11 02:56:07;;;;;;;38.65;20.25;;;7.10;99.90;;;;;;5107419;28;20031;-58
2021/10/11 02:58:33;;;;;;;36.85;19.92;;;7.10;99.90;;;;;;5107644;28;20036;-58
2021/10/11 03:00:58;;;;;;;38.10;21.23;;;7.10;99.90;;;;;;5109445;28;20103;-60
2021/10/11 03:03:24;;;;;;;35.95;19.23;;;7.20;99.90;;;;;;5109961;28;20036;-60
2021/10/11 03:05:49;;;;;;;33.38;20.25;;;7.20;99.90;;;;;;5103863;28;20023;-59
2021/10/11 03:08:15;;;;;;;33.80;19.23;;;7.20;99.90;;;;;;5110618;28;20373;-59
2021/10/11 03:10:40;;;;;;;21.73;12.57;;;7.20;99.90;;;;;;5102935;28;20055;-61
2021/10/11 03:13:06;;;;;;;23.33;11.73;;;7.30;99.90;;;;;;5103076;28;20166;-60
2021/10/11 03:15:31;;;;;;;21.25;12.52;;;7.30;99.90;;;;;;5106741;28;20112;-60
2021/10/11 03:17:57;;;;;;;18.58;10.90;;;7.30;99.90;;;;;;5111106;28;20101;-60
2021/10/11 03:20:23;;;;;;;18.02;11.57;;;7.40;99.90;;;;;;5110773;28;20644;-58
2021/10/11 03:22:48;;;;;;;20.08;11.85;;;7.30;99.90;;;;;;5109681;28;20114;-60
2021/10/11 03:25:14;;;;;;;25.10;11.65;;;7.30;99.90;;;;;;5111717;28;20790;-53
2021/10/11 03:27:39;;;;;;;18.05;10.52;;;7.30;99.90;;;;;;5110901;28;20027;-58
2021/10/11 03:30:05;;;;;;;17.88;11.65;;;7.30;99.90;;;;;;5110931;28;20442;-58
2021/10/11 03:32:31;;;;;;;22.60;13.35;;;7.30;99.90;;;;;;5110722;28;20103;-60
2021/10/11 03:34:56;;;;;;;31.45;17.13;;;7.30;99.90;;;;;;5107854;28;20111;-60
2021/10/11 03:37:22;;;;;;;27.75;16.42;;;7.40;99.90;;;;;;5104192;28;20112;-58
2021/10/11 03:39:47;;;;;;;25.27;15.77;;;7.30;99.90;;;;;;5110768;28;20545;-58
2021/10/11 03:42:13;;;;;;;31.90;17.30;;;7.30;99.90;;;;;;5105397;28;20030;-58
2021/10/11 03:44:38;;;;;;;23.98;12.38;;;7.30;99.90;;;;;;5103417;28;20060;-59
2021/10/11 03:47:04;;;;;;;19.77;11.13;;;7.40;99.90;;;;;;5110791;28;20031;-59
2021/10/11 03:49:29;;;;;;;19.38;11.13;;;7.40;99.90;;;;;;5106112;28;20034;-59
2021/10/11 03:51:55;;;;;;;19.63;11.90;;;7.40;99.90;;;;;;5105519;28;20039;-59
2021/10/11 03:54:20;;;;;;;31.40;15.13;;;7.40;99.90;;;;;;5100794;28;20130;-60
2021/10/11 03:56:46;;;;;;;25.02;13.45;;;7.40;99.90;;;;;;5102252;28;20580;-59
2021/10/11 03:59:12;;;;;;;16.70;12.00;;;7.40;99.90;;;;;;5107925;28;20116;-58
2021/10/11 04:01:38;;;;;;;24.30;14.73;;;7.40;99.90;;;;;;5104648;28;20106;-58
2021/10/11 04:04:06;;;;;;;29.13;17.20;;;7.40;99.90;;;;;;5099668;28;20032;-59
2021/10/11 04:06:31;;;;;;;28.20;16.90;;;7.50;99.90;;;;;;5104012;28;20038;-59
2021/10/11 04:08:59;;;;;;;26.50;17.52;;;7.50;99.90;;;;;;5104121;28;20102;-60
2021/10/11 04:11:24;;;;;;;34.58;18.50;;;7.50;99.90;;;;;;5107729;28;20062;-60
2021/10/11 04:13:50;;;;;;;41.03;22.02;;;7.60;99.90;;;;;;5107467;28;20035;-59
2021/10/11 04:16:16;;;;;;;34.75;21.25;;;7.60;99.90;;;;;;5107879;28;20020;-59
2021/10/11 04:18:42;;;;;;;34.85;21.45;;;7.60;99.90;;;;;;5106991;28;20076;-57
2021/10/11 04:21:08;;;;;;;49.13;23.90;;;7.60;99.90;;;;;;5106114;28;20039;-59
2021/10/11 04:23:36;;;;;;;40.22;22.92;;;7.60;99.90;;;;;;5104020;28;20032;-57
2021/10/11 04:26:02;;;;;;;45.38;26.10;;;7.60;99.90;;;;;;5106753;28;20404;-59
2021/10/11 04:28:28;;;;;;;45.65;25.00;;;7.70;99.90;;;;;;5106732;28;20043;-60
2021/10/11 04:30:53;;;;;;;39.15;23.05;;;7.60;99.90;;;;;;5106298;28;20068;-59
2021/10/11 04:33:21;;;;;;;35.55;20.40;;;7.60;99.90;;;;;;5104486;28;20499;-59
2021/10/11 04:35:47;;;;;;;34.22;20.38;;;7.60;99.90;;;;;;5107042;28;20022;-60
2021/10/11 04:38:13;;;;;;;28.50;18.45;;;7.70;99.90;;;;;;5109301;28;20027;-60
2021/10/11 04:40:39;;;;;;;34.00;21.13;;;7.60;99.90;;;;;;5109274;28;20063;-59
2021/10/11 04:43:05;;;;;;;36.25;19.92;;;7.60;99.90;;;;;;5107352;28;20038;-58
2021/10/11 04:45:30;;;;;;;35.63;20.20;;;7.60;99.90;;;;;;5100687;28;20027;-59
2021/10/11 04:47:58;;;;;;;35.40;21.10;;;7.60;99.90;;;;;;5109280;28;20026;-60
2021/10/11 04:50:24;;;;;;;29.27;17.73;;;7.60;99.90;;;;;;5106971;28;20063;-60
2021/10/11 04:52:49;;;;;;;24.42;13.07;;;7.60;99.90;;;;;;5105734;28;20019;-60
2021/10/11 04:55:15;;;;;;;40.35;12.48;;;7.60;99.90;;;;;;5097744;28;21712;-53
2021/10/11 04:57:41;;;;;;;21.80;13.95;;;7.60;99.90;;;;;;5106235;28;20492;-59
2021/10/11 05:00:07;;;;;;;21.75;13.43;;;7.40;99.90;;;;;;5107545;28;20027;-59
2021/10/11 05:02:32;;;;;;;33.83;17.00;;;7.40;99.90;;;;;;5108689;28;20043;-60
2021/10/11 05:04:58;;;;;;;39.03;21.17;;;7.40;99.90;;;;;;5105784;28;20115;-58
2021/10/11 05:07:23;;;;;;;39.40;23.58;;;7.40;99.90;;;;;;5102169;28;20043;-58
2021/10/11 05:09:49;;;;;;;38.35;20.45;;;7.40;99.90;;;;;;5108426;28;20032;-60
2021/10/11 05:12:15;;;;;;;37.35;21.30;;;7.40;99.90;;;;;;5104640;28;20096;-58
2021/10/11 05:14:40;;;;;;;43.60;23.48;;;7.50;99.90;;;;;;5103632;28;20055;-60
2021/10/11 05:17:06;;;;;;;42.30;23.02;;;7.50;99.90;;;;;;5106587;28;20035;-60
2021/10/11 05:19:31;;;;;;;41.47;23.30;;;7.50;99.90;;;;;;5104077;28;20054;-60
2021/10/11 05:21:57;;;;;;;48.40;25.05;;;7.60;99.90;;;;;;5105914;28;20763;-60
2021/10/11 05:24:23;;;;;;;53.75;27.13;;;7.60;99.90;;;;;;5105574;28;20519;-60
2021/10/11 05:26:51;;;;;;;64.15;32.00;;;7.60;99.90;;;;;;5104385;28;20031;-60
2021/10/11 05:29:17;;;;;;;74.28;37.03;;;7.70;99.90;;;;;;5108236;28;20119;-59
2021/10/11 05:31:42;;;;;;;101.85;44.30;;;7.80;99.90;;;;;;5107944;28;20024;-58
2021/10/11 05:34:08;;;;;;;100.68;45.97;;;7.80;99.90;;;;;;5104269;28;20541;-60
2021/10/11 05:36:34;;;;;;;75.65;39.20;;;7.90;99.90;;;;;;5108823;28;20028;-57
2021/10/11 05:38:59;;;;;;;53.60;29.58;;;7.90;99.90;;;;;;5107648;28;20023;-59
2021/10/11 05:41:25;;;;;;;58.17;30.17;;;7.90;99.90;;;;;;5110158;28;20034;-60
2021/10/11 05:43:50;;;;;;;52.75;29.40;;;7.90;99.90;;;;;;5111274;28;20035;-60
2021/10/11 05:46:16;;;;;;;77.32;41.38;;;7.90;99.90;;;;;;5110272;28;20078;-59
2021/10/11 05:48:41;;;;;;;132.25;67.05;;;8.00;99.90;;;;;;5106256;28;20077;-60
2021/10/11 05:51:07;;;;;;;113.60;57.80;;;8.00;99.90;;;;;;5108990;28;20051;-60
2021/10/11 05:53:32;;;;;;;75.88;39.28;;;8.00;99.90;;;;;;5109748;28;20024;-59
2021/10/11 05:55:58;;;;;;;71.78;37.70;;;8.00;99.90;;;;;;5110071;28;20528;-59
2021/10/11 05:58:24;;;;;;;82.32;37.47;;;8.10;99.90;;;;;;5075147;28;20564;-59
2021/10/11 06:00:49;;;;;;;71.22;36.40;;;8.10;99.90;;;;;;5102878;28;20550;-60
2021/10/11 06:03:15;;;;;;;57.88;30.30;;;8.10;99.90;;;;;;5104948;28;20020;-55
2021/10/11 06:05:40;;;;;;;57.00;28.73;;;8.20;99.90;;;;;;5108522;28;20024;-60
2021/10/11 06:08:06;;;;;;;59.30;28.65;;;8.10;99.90;;;;;;5100757;28;20034;-60
2021/10/11 06:10:32;;;;;;;46.83;22.08;;;8.10;99.90;;;;;;5104557;28;20092;-59
2021/10/11 06:12:57;;;;;;;36.33;21.25;;;8.10;99.90;;;;;;5103215;28;20035;-60
2021/10/11 06:15:23;;;;;;;51.85;29.02;;;8.20;99.90;;;;;;5108675;28;20046;-58
2021/10/11 06:17:49;;;;;;;58.60;29.58;;;8.10;99.90;;;;;;5110411;28;20030;-59
2021/10/11 06:20:14;;;;;;;43.70;25.52;;;8.10;99.90;;;;;;5108503;28;20023;-60
2021/10/11 06:22:40;;;;;;;40.03;21.40;;;8.10;99.90;;;;;;5109749;28;20066;-59
2021/10/11 06:25:06;;;;;;;36.60;21.95;;;8.20;99.90;;;;;;5107894;28;20032;-59
2021/10/11 06:27:32;;;;;;;36.33;20.35;;;8.30;99.90;;;;;;5109323;28;20576;-60
2021/10/11 06:29:59;;;;;;;37.40;19.83;;;8.30;99.90;;;;;;5105526;28;20504;-60
2021/10/11 06:32:24;;;;;;;48.33;22.92;;;8.30;99.90;;;;;;5106199;28;20506;-59
2021/10/11 06:34:50;;;;;;;36.28;19.85;;;8.30;99.90;;;;;;5107794;28;20027;-60
2021/10/11 06:37:16;;;;;;;37.88;21.02;;;8.40;99.90;;;;;;5103880;28;20512;-54
2021/10/11 06:39:42;;;;;;;34.20;20.88;;;8.40;99.90;;;;;;5110377;28;20047;-60
2021/10/11 06:42:08;;;;;;;34.80;19.88;;;8.40;99.90;;;;;;5110243;28;20016;-60
2021/10/11 06:44:33;;;;;;;50.53;24.27;;;8.40;99.90;;;;;;5109382;28;20607;-60
2021/10/11 06:46:59;;;;;;;37.92;20.25;;;8.40;99.90;;;;;;5108081;28;20134;-59
2021/10/11 06:49:24;;;;;;;46.35;23.08;;;8.40;99.90;;;;;;5110287;28;20028;-59
2021/10/11 06:51:50;;;;;;;54.50;27.35;;;8.30;99.90;;;;;;5108787;28;20046;-60
2021/10/11 06:54:16;;;;;;;52.83;30.73;;;8.30;99.90;;;;;;5106756;28;20038;-58
2021/10/11 06:56:41;;;;;;;47.33;26.05;;;8.30;99.90;;;;;;5107527;28;20051;-59
2021/10/11 06:59:07;;;;;;;44.88;25.27;;;8.30;99.90;;;;;;5092924;28;20040;-59
2021/10/11 07:01:33;;;;;;;49.10;26.08;;;8.30;99.90;;;;;;5107874;28;20450;-56
2021/10/11 07:03:58;;;;;;;47.75;24.73;;;8.30;99.90;;;;;;5106707;28;20043;-60
2021/10/11 07:06:25;;;;;;;58.95;24.90;;;8.40;99.90;;;;;;5105885;28;20044;-59
2021/10/11 07:08:52;;;;;;;51.33;25.30;;;8.40;99.90;;;;;;5102588;28;20058;-60
2021/10/11 07:11:17;;;;;;;59.58;27.27;;;8.50;99.90;;;;;;5100145;28;20020;-54
2021/10/11 07:13:43;;;;;;;61.63;26.70;;;8.50;99.90;;;;;;5098732;28;20084;-60
2021/10/11 07:16:08;;;;;;;66.95;29.17;;;8.50;99.90;;;;;;5103797;28;20042;-59
2021/10/11 07:18:35;;;;;;;83.70;31.50;;;8.50;99.90;;;;;;5098615;28;20039;-59
2021/10/11 07:21:02;;;;;;;78.70;33.13;;;8.50;99.90;;;;;;5111146;28;20084;-60
2021/10/11 07:23:30;;;;;;;64.78;27.65;;;8.60;99.90;;;;;;5110129;28;20528;-60
2021/10/11 07:26:01;;;;;;;71.30;30.52;;;8.60;99.90;;;;;;5102197;28;20051;-60
2021/10/11 07:28:27;;;;;;;66.82;31.10;;;8.70;99.90;;;;;;5105573;28;20119;-60
2021/10/11 07:30:53;;;;;;;60.80;30.27;;;8.80;99.90;;;;;;5108689;28;20027;-59
2021/10/11 07:33:22;;;;;;;62.88;29.48;;;8.90;99.90;;;;;;5103595;28;20174;-59
2021/10/11 07:35:50;;;;;;;77.90;31.85;;;9.10;99.90;;;;;;5102203;28;20079;-60
2021/10/11 07:38:15;;;;;;;72.28;32.45;;;9.20;99.90;;;;;;5097687;28;20054;-59
2021/10/11 07:40:41;;;;;;;77.72;32.10;;;9.30;99.90;;;;;;5106689;28;20081;-60
2021/10/11 07:43:07;;;;;;;74.03;31.08;;;9.40;99.90;;;;;;5103455;28;20054;-59
2021/10/11 07:45:32;;;;;;;75.47;31.08;;;9.40;99.90;;;;;;5108186;28;20151;-59
2021/10/11 07:47:58;;;;;;;86.68;35.28;;;9.50;99.90;;;;;;5092175;28;20196;-60
2021/10/11 07:50:24;;;;;;;75.60;31.80;;;9.60;99.90;;;;;;5104568;28;20043;-61
2021/10/11 07:52:49;;;;;;;94.63;36.88;;;9.60;99.90;;;;;;5095985;28;20028;-61
2021/10/11 07:55:15;;;;;;;82.75;35.53;;;9.70;99.90;;;;;;5100700;28;20024;-57
2021/10/11 07:57:42;;;;;;;78.97;33.00;;;9.80;99.90;;;;;;5077657;28;20070;-60
2021/10/11 08:00:14;;;;;;;80.78;32.53;;;10.00;99.90;;;;;;5102988;28;20046;-61
2021/10/11 08:02:40;;;;;;;69.45;30.58;;;10.10;99.90;;;;;;5104122;28;20473;-60
2021/10/11 08:05:06;;;;;;;74.60;32.72;;;10.30;99.90;;;;;;5104129;28;20184;-61
2021/10/11 08:07:32;;;;;;;76.13;34.25;;;10.50;99.90;;;;;;5103106;28;20030;-60
2021/10/11 08:09:58;;;;;;;83.10;36.42;;;10.60;99.90;;;;;;5107118;28;20094;-60
2021/10/11 08:12:23;;;;;;;71.60;33.50;;;10.60;99.90;;;;;;5101845;28;20428;-60
2021/10/11 08:14:49;;;;;;;75.72;35.75;;;10.80;99.90;;;;;;5100582;28;20420;-60
2021/10/11 08:17:14;;;;;;;74.18;38.65;;;11.00;99.90;;;;;;5109398;28;20437;-59
2021/10/11 08:19:40;;;;;;;80.65;33.55;;;11.10;99.90;;;;;;5104660;28;20080;-60
2021/10/11 08:22:06;;;;;;;63.83;31.05;;;11.30;99.90;;;;;;5103234;28;20023;-60
2021/10/11 08:24:32;;;;;;;72.57;31.77;;;11.60;99.90;;;;;;5098770;28;20039;-60
2021/10/11 08:26:57;;;;;;;70.68;32.63;;;11.70;99.90;;;;;;5107208;28;20059;-61
2021/10/11 08:29:23;;;;;;;61.60;33.72;;;11.80;99.90;;;;;;5108230;28;20064;-61
2021/10/11 08:31:48;;;;;;;66.82;33.22;;;12.00;99.90;;;;;;5109954;28;20037;-60
2021/10/11 08:34:14;;;;;;;64.28;32.65;;;12.20;99.90;;;;;;5106208;28;20069;-61
2021/10/11 08:36:40;;;;;;;58.15;30.25;;;12.40;99.90;;;;;;5109293;28;20059;-61
2021/10/11 08:39:05;;;;;;;62.00;29.65;;;12.60;99.90;;;;;;5100229;28;20028;-61
2021/10/11 08:41:31;;;;;;;52.00;28.65;;;12.80;99.90;;;;;;5105155;28;20042;-61
2021/10/11 08:43:57;;;;;;;53.75;27.98;;;13.00;99.90;;;;;;5100226;28;20133;-60
2021/10/11 08:46:23;;;;;;;56.25;30.23;;;13.10;99.90;;;;;;5108241;28;20088;-61
2021/10/11 08:48:49;;;;;;;58.55;31.83;;;13.10;99.90;;;;;;5109546;28;20481;-60
2021/10/11 08:51:15;;;;;;;59.22;33.95;;;13.20;99.90;;;;;;5108649;28;20031;-60
2021/10/11 08:53:41;;;;;;;59.97;32.90;;;13.30;99.90;;;;;;5107209;28;20024;-59
2021/10/11 08:56:10;;;;;;;54.40;31.70;;;13.60;99.90;;;;;;5109683;28;20023;-60
2021/10/11 08:58:47;;;;;;;50.88;31.17;;;13.80;99.90;;;;;;5083443;28;20067;-59
2021/10/11 09:01:13;;;;;;;56.00;31.52;;;14.00;99.90;;;;;;5102522;28;20536;-60
2021/10/11 09:03:39;;;;;;;58.03;33.78;;;13.90;99.90;;;;;;5099406;28;20096;-60
2021/10/11 09:06:07;;;;;;;51.97;32.35;;;14.00;99.90;;;;;;5106549;28;20062;-60
2021/10/11 09:08:35;;;;;;;72.20;42.28;;;14.00;99.90;;;;;;5097596;28;20137;-58
2021/10/11 09:11:07;;;;;;;60.33;39.72;;;13.90;99.90;;;;;;5101208;28;20028;-60
2021/10/11 09:13:43;;;;;;;52.33;27.58;;;14.10;99.90;;;;;;5096022;28;20032;-60
2021/10/11 09:16:26;;;;;;;47.63;26.45;;;14.00;99.90;;;;;;5099620;28;20027;-60
2021/10/11 09:18:55;;;;;;;48.60;29.58;;;14.00;99.90;;;;;;5103691;28;20024;-60
2021/10/11 09:21:31;;;;;;;53.58;28.58;;;13.80;99.90;;;;;;5107414;28;20433;-58
2021/10/11 09:24:08;;;;;;;48.50;29.15;;;13.70;99.90;;;;;;5104683;28;20032;-60
2021/10/11 09:26:47;;;;;;;45.08;26.40;;;13.50;99.90;;;;;;5098260;28;20032;-60
2021/10/11 09:29:14;;;;;;;45.05;25.27;;;13.60;99.90;;;;;;5105446;28;20424;-60
2021/10/11 09:31:47;;;;;;;50.05;24.67;;;13.60;99.90;;;;;;5104824;28;20516;-59
2021/10/11 09:34:18;;;;;;;47.25;25.98;;;13.60;99.90;;;;;;5100641;28;20055;-60
2021/10/11 09:36:54;;;;;;;50.25;26.73;;;13.90;99.90;;;;;;5107055;28;20028;-60
2021/10/11 09:39:23;;;;;;;64.57;33.83;;;13.80;99.90;;;;;;5104087;28;20023;-55
2021/10/11 09:41:52;;;;;;;42.83;23.58;;;14.20;99.90;;;;;;5107373;28;20480;-59
2021/10/11 09:44:18;;;;;;;40.38;22.88;;;14.30;99.90;;;;;;5099466;28;20027;-58
2021/10/11 09:46:45;;;;;;;37.33;20.27;;;14.40;99.90;;;;;;5104341;28;20038;-60
2021/10/11 09:49:11;;;;;;;37.63;22.02;;;14.20;99.90;;;;;;5103805;28;20019;-60
2021/10/11 09:51:37;;;;;;;36.15;18.92;;;14.30;99.90;;;;;;5107881;28;20040;-59
2021/10/11 09:54:03;;;;;;;34.85;17.40;;;14.40;99.90;;;;;;5106991;28;20055;-60
2021/10/11 09:56:29;;;;;;;42.60;17.65;;;14.40;99.90;;;;;;5107934;28;20023;-61
2021/10/11 09:58:55;;;;;;;34.47;15.35;;;14.40;99.90;;;;;;5088701;28;20048;-59
2021/10/11 10:01:22;;;;;;;39.10;18.58;;;14.20;99.90;;;;;;5098945;28;20094;-59
2021/10/11 10:03:50;;;;;;;32.92;17.80;;;14.30;99.90;;;;;;5100318;28;20028;-60
2021/10/11 10:06:16;;;;;;;31.63;17.20;;;14.50;99.90;;;;;;5106696;28;20488;-61
2021/10/11 10:08:43;;;;;;;30.88;16.10;;;14.40;99.90;;;;;;5094327;28;20060;-60
2021/10/11 10:11:10;;;;;;;27.25;14.52;;;14.30;99.90;;;;;;5112744;28;20040;-60
2021/10/11 10:13:47;;;;;;;30.98;15.38;;;14.40;99.90;;;;;;5097492;28;20032;-59
2021/10/11 10:16:14;;;;;;;38.95;14.35;;;14.60;99.90;;;;;;5103358;28;20024;-60
2021/10/11 10:18:44;;;;;;;26.85;13.88;;;14.80;99.90;;;;;;5107669;28;20593;-59
2021/10/11 10:21:11;;;;;;;30.02;13.75;;;14.90;99.90;;;;;;5109139;28;20149;-59
2021/10/11 10:23:44;;;;;;;33.47;15.80;;;14.90;99.90;;;;;;5102366;28;20042;-61
2021/10/11 10:26:12;;;;;;;27.73;15.85;;;15.00;99.90;;;;;;5108706;28;20102;-61
2021/10/11 10:28:50;;;;;;;32.53;16.90;;;15.00;99.90;;;;;;5108065;28;20031;-59
2021/10/11 10:31:30;;;;;;;34.38;15.77;;;15.00;99.90;;;;;;5110207;28;20050;-59
2021/10/11 10:33:56;;;;;;;25.23;13.05;;;15.00;99.90;;;;;;5111950;28;20030;-61
2021/10/11 10:36:28;;;;;;;26.38;13.60;;;14.90;99.90;;;;;;5109060;28;20050;-60
2021/10/11 10:39:00;;;;;;;26.65;12.73;;;15.10;99.90;;;;;;5107910;28;20059;-60
2021/10/11 10:41:27;;;;;;;37.55;14.52;;;15.10;99.90;;;;;;5110368;28;20504;-60
2021/10/11 10:43:53;;;;;;;26.88;12.80;;;15.10;99.90;;;;;;5109815;28;20027;-61
2021/10/11 10:46:19;;;;;;;30.77;14.57;;;15.00;99.90;;;;;;5111913;28;20039;-61
2021/10/11 10:48:54;;;;;;;28.45;12.93;;;14.90;99.90;;;;;;5108102;28;20396;-58
2021/10/11 10:51:20;;;;;;;26.17;12.48;;;14.80;99.90;;;;;;5111168;28;20024;-59
2021/10/11 10:53:54;;;;;;;20.90;11.50;;;14.70;99.90;;;;;;5104599;28;20034;-59
2021/10/11 10:56:20;;;;;;;23.95;11.18;;;14.90;99.90;;;;;;5108831;28;20020;-59
2021/10/11 10:58:46;;;;;;;23.75;10.05;;;14.90;99.90;;;;;;5086619;28;20438;-60
2021/10/11 11:01:13;;;;;;;20.40;9.63;;;15.10;99.90;;;;;;5108766;28;20061;-59
2021/10/11 11:03:38;;;;;;;25.95;9.63;;;15.30;99.90;;;;;;5106734;28;20191;-60
2021/10/11 11:06:06;;;;;;;21.58;8.80;;;15.50;99.90;;;;;;5106986;28;20541;-61
2021/10/11 11:08:32;;;;;;;23.92;9.32;;;15.60;99.90;;;;;;5106057;28;20031;-60
2021/10/11 11:11:02;;;;;;;23.08;9.32;;;15.60;99.90;;;;;;5110349;28;20024;-60
2021/10/11 11:13:28;;;;;;;23.98;8.45;;;15.70;99.90;;;;;;5106155;28;20040;-61
2021/10/11 11:15:53;;;;;;;18.35;8.75;;;15.60;99.90;;;;;;5110637;28;20036;-61
2021/10/11 11:18:24;;;;;;;16.30;8.30;;;15.50;99.90;;;;;;5109812;28;20031;-61
2021/10/11 11:20:52;;;;;;;19.25;7.13;;;15.50;99.90;;;;;;5110917;28;20035;-59
2021/10/11 11:23:22;;;;;;;22.98;8.70;;;15.40;99.90;;;;;;5107913;28;20062;-57
2021/10/11 11:25:50;;;;;;;17.00;6.43;;;15.20;99.90;;;;;;5107205;28;20032;-60
2021/10/11 11:28:18;;;;;;;18.38;6.35;;;15.10;99.90;;;;;;5110447;28;20023;-58
2021/10/11 11:30:46;;;;;;;17.45;5.93;;;14.80;99.90;;;;;;5109417;28;20039;-61
2021/10/11 11:33:19;;;;;;;21.73;6.50;;;14.40;99.90;;;;;;5105153;28;20389;-61
2021/10/11 11:35:47;;;;;;;13.57;5.28;;;14.20;99.90;;;;;;5104145;28;20047;-60
2021/10/11 11:38:15;;;;;;;19.42;6.05;;;14.00;99.90;;;;;;5110270;28;20446;-60
2021/10/11 11:40:51;;;;;;;14.43;5.00;;;13.90;99.90;;;;;;5110636;28;20114;-57
2021/10/11 11:43:17;;;;;;;16.48;4.93;;;14.00;99.90;;;;;;5105040;28;20052;-61
2021/10/11 11:45:51;;;;;;;12.40;4.53;;;14.00;99.90;;;;;;5109375;28;20031;-59
2021/10/11 11:48:29;;;;;;;12.00;3.95;;;14.00;99.90;;;;;;5104684;28;20508;-61
2021/10/11 11:51:00;;;;;;;15.65;3.35;;;14.10;99.90;;;;;;5107579;28;20035;-59
2021/10/11 11:53:26;;;;;;;15.18;4.18;;;14.30;99.90;;;;;;5103159;28;20099;-59
2021/10/11 11:55:54;;;;;;;13.60;3.03;;;14.30;99.90;;;;;;5097185;28;20019;-58
2021/10/11 11:58:26;;;;;;;15.65;2.92;;;14.40;99.90;;;;;;5098695;28;20031;-61
2021/10/11 12:00:55;;;;;;;15.60;3.35;;;14.60;99.90;;;;;;5068213;28;20185;-61
2021/10/11 12:03:22;;;;;;;9.82;2.45;;;14.80;99.90;;;;;;5103852;28;20105;-54
2021/10/11 12:05:52;;;;;;;7.90;2.78;;;14.90;99.90;;;;;;5104983;28;20059;-61
2021/10/11 12:08:19;;;;;;;9.90;2.80;;;15.10;99.90;;;;;;5102541;28;20099;-61
2021/10/11 12:11:03;;;;;;;23.40;3.65;;;15.10;99.90;;;;;;5108466;28;20028;-61
2021/10/11 12:13:29;;;;;;;;;;;15.30;99.90;;;;;;5102875;28;20032;-60
2021/10/11 12:16:00;;;;;;;13.85;2.30;;;15.00;99.90;;;;;;5110094;27;19929;-60
2021/10/11 12:18:35;;;;;;;11.15;2.97;;;15.30;99.90;;;;;;5107325;28;20032;-59
2021/10/11 12:21:00;;;;;;;12.00;2.45;;;15.30;99.90;;;;;;5106562;28;20081;-61
2021/10/11 12:23:39;;;;;;;10.20;2.75;;;15.40;99.90;;;;;;5101823;28;20710;-61
2021/10/11 12:26:05;;;;;;;17.02;4.15;;;15.50;99.90;;;;;;5107614;28;20445;-61
2021/10/11 12:28:31;;;;;;;11.35;2.60;;;15.30;99.90;;;;;;5103118;28;20407;-60
2021/10/11 12:31:02;;;;;;;16.70;2.65;;;15.30;99.90;;;;;;5100346;28;20114;-60
2021/10/11 12:33:38;;;;;;;12.93;3.20;;;15.30;99.90;;;;;;5103343;28;20124;-61